KMWH/MWH METAR and TAF weather

Enter ICAO airport designator
Station Type Date Time Source
KMWH METAR 2019/09/20 09:52 UTC NOAA

KMWH 200952Z AUTO 16004KT 10SM OVC100 12/07 A2994 RMK AO2 SLP134 T01220072


Station Type Date Time Source
KMWH Decoded METAR 2019/09/20 09:52 UTC NOAA

GRANT COUNTY AIRPORT, WA, United States (KMWH) 47-12N 119-19W 362M
Sep 20, 2019 - 05:52 AM EDT / 2019.09.20 0952 UTC
Wind: from the SSE (160 degrees) at 5 MPH (4 KT):0
Visibility: 10 mile(s):0
Sky conditions: overcast
Temperature: 54.0 F (12.2 C)
Dew Point: 45.0 F (7.2 C)
Relative Humidity: 71%
Pressure (altimeter): 29.94 in. Hg (1013 hPa)
ob: KMWH 200952Z AUTO 16004KT 10SM OVC100 12/07 A2994 RMK AO2 SLP134 T01220072
cycle: 10

Station Type Date Time Source
KMWH TAF 2019/09/20 06:39 UTC NOAA

TAF KMWH 200536Z 2006/2106 23005KT P6SM SCT150 BKN200
FM201100 30004KT P6SM OVC120
FM201500 VRB04KT P6SM SCT200
FM201900 23008KT P6SM FEW250

Example: see airport list